Time;durP1;ratioP1;P1;durP2;ratioP2;P2;SDS_P1;SDS_P2;PMS_P1;PMS_P2;Temp;Humidity;BMP_temperature;BMP_pressure;BME280_temperature;BME280_humidity;BME280_pressure;Samples;Min_cycle;Max_cycle;Signal;HPM_P1;HPM_P2
2021/12/10 00:01:39;;;;;;;5.03;1.00;;;4.70;95.00;;;;;;4980575;23;20138;31
2021/12/10 00:04:10;;;;;;;4.15;1.20;;;4.70;95.10;;;;;;4875370;29;20478;-79
2021/12/10 00:06:43;;;;;;;4.95;1.00;;;4.70;95.50;;;;;;4879087;29;20045;-79
2021/12/10 00:09:16;;;;;;;3.75;1.00;;;4.70;95.30;;;;;;4885973;29;20137;-78
2021/12/10 00:11:48;;;;;;;3.53;1.10;;;4.60;95.30;;;;;;4889114;29;20131;-80
2021/12/10 00:14:17;;;;;;;5.35;1.25;;;4.60;95.40;;;;;;4887714;29;20047;-80
2021/12/10 00:16:45;;;;;;;3.78;1.30;;;4.60;95.50;;;;;;4885817;29;20132;-77
2021/12/10 00:19:24;;;;;;;3.63;1.08;;;4.60;95.60;;;;;;4886514;29;20055;-79
2021/12/10 00:21:53;;;;;;;3.45;1.13;;;4.60;95.70;;;;;;4881780;29;20120;-79
2021/12/10 00:24:25;;;;;;;3.78;1.10;;;4.50;95.70;;;;;;4888085;29;20053;-77
2021/12/10 00:26:54;;;;;;;4.70;1.27;;;4.50;95.80;;;;;;4890093;29;20187;-80
2021/12/10 00:29:21;;;;;;;4.93;1.20;;;4.40;95.90;;;;;;4891750;29;20087;-80
2021/12/10 00:31:56;;;;;;;4.22;1.30;;;4.40;95.90;;;;;;4889398;29;20104;-79
2021/12/10 00:34:29;;;;;;;4.60;1.13;;;4.40;96.00;;;;;;4883551;29;20052;-78
2021/12/10 00:36:59;;;;;;;4.28;1.40;;;4.30;96.00;;;;;;4893354;29;20135;-78
2021/12/10 00:39:31;;;;;;;3.15;1.00;;;4.30;96.10;;;;;;4890241;29;20498;-80
2021/12/10 00:42:02;;;;;;;4.97;1.50;;;4.30;96.20;;;;;;4889879;29;20123;-79
2021/12/10 00:44:30;;;;;;;3.92;1.20;;;4.20;96.30;;;;;;4897596;29;20557;-79
2021/12/10 00:46:57;;;;;;;4.47;1.05;;;4.20;96.30;;;;;;4883418;29;20157;-79
2021/12/10 00:49:24;;;;;;;4.60;1.25;;;4.20;96.40;;;;;;4888095;29;20051;-79
2021/12/10 00:51:51;;;;;;;3.42;1.17;;;4.10;96.50;;;;;;4887847;29;20129;-78
2021/12/10 00:54:19;;;;;;;4.78;1.40;;;4.10;96.80;;;;;;4888150;29;20144;-79
2021/12/10 00:56:46;;;;;;;2.42;0.95;;;4.10;96.60;;;;;;4890697;29;20073;-78
2021/12/10 00:59:17;;;;;;;5.22;1.10;;;4.10;96.70;;;;;;4891399;29;20406;-80
2021/12/10 01:01:45;;;;;;;5.57;1.00;;;4.00;96.60;;;;;;4884165;29;20053;-78
2021/12/10 01:04:19;;;;;;;4.40;1.30;;;4.00;96.60;;;;;;4887539;29;20132;-78
2021/12/10 01:06:50;;;;;;;5.18;1.20;;;4.00;96.70;;;;;;4886386;29;20132;-80
2021/12/10 01:09:23;;;;;;;5.28;1.30;;;4.00;96.70;;;;;;4896752;29;20083;-78
2021/12/10 01:11:54;;;;;;;3.47;1.13;;;3.90;96.70;;;;;;4889809;29;20565;-80
2021/12/10 01:14:38;;;;;;;6.45;1.80;;;3.90;96.70;;;;;;4888172;29;20112;-78
2021/12/10 01:25:36;;;;;;;3.83;1.00;;;3.80;96.60;;;;;;4885553;29;20176;-79
2021/12/10 01:28:07;;;;;;;4.85;1.30;;;3.80;96.60;;;;;;4883584;29;20084;-80
2021/12/10 01:30:41;;;;;;;3.00;1.00;;;3.80;96.60;;;;;;4893736;29;20049;-78
2021/12/10 01:33:12;;;;;;;4.18;1.30;;;3.80;96.50;;;;;;4893726;29;20075;-79
2021/12/10 01:35:44;;;;;;;3.63;0.93;;;3.70;96.40;;;;;;4896507;29;20124;-79
2021/12/10 01:38:13;;;;;;;4.20;1.10;;;3.70;96.40;;;;;;4893930;29;20430;-80
2021/12/10 01:40:46;;;;;;;4.07;1.40;;;3.70;96.40;;;;;;4896526;29;20455;-80
2021/12/10 01:43:22;;;;;;;4.40;1.38;;;3.70;96.40;;;;;;4894683;29;20055;-79
2021/12/10 01:45:54;;;;;;;4.25;1.15;;;3.70;96.40;;;;;;4894530;29;20087;-81
2021/12/10 01:48:27;;;;;;;8.57;1.20;;;3.60;96.40;;;;;;4887728;29;20183;-80
2021/12/10 01:50:56;;;;;;;3.83;1.38;;;3.60;96.40;;;;;;4896387;29;20104;-78
2021/12/10 01:53:27;;;;;;;5.03;1.13;;;3.60;96.50;;;;;;4901933;29;20056;-80
2021/12/10 01:55:59;;;;;;;3.53;1.20;;;3.60;96.50;;;;;;4889116;29;20398;-79
2021/12/10 01:58:31;;;;;;;4.60;1.30;;;3.50;96.50;;;;;;4875170;29;20141;-81
2021/12/10 02:01:05;;;;;;;4.63;1.20;;;3.50;96.50;;;;;;4874831;29;20080;-78
2021/12/10 02:03:32;;;;;;;4.47;1.40;;;3.40;96.50;;;;;;4884583;29;20493;-80
2021/12/10 02:06:02;;;;;;;4.18;1.80;;;3.40;96.60;;;;;;4884256;29;20465;-78
2021/12/10 02:08:29;;;;;;;4.65;1.50;;;3.40;96.70;;;;;;4885118;29;20081;-81
2021/12/10 02:10:57;;;;;;;7.32;1.73;;;3.40;96.70;;;;;;4878088;29;20137;-81
2021/12/10 02:13:24;;;;;;;6.18;1.80;;;3.40;96.80;;;;;;4876794;29;20077;-80
2021/12/10 02:15:51;;;;;;;5.10;1.40;;;3.30;96.80;;;;;;4872329;29;20105;-81
2021/12/10 02:18:21;;;;;;;5.68;2.03;;;3.30;96.90;;;;;;4892737;29;20127;-80
2021/12/10 02:21:16;;;;;;;4.43;1.70;;;3.30;97.00;;;;;;4894439;29;20053;-81
2021/12/10 02:23:46;;;;;;;5.65;1.80;;;3.20;97.10;;;;;;4893225;29;20128;-80
2021/12/10 02:26:16;;;;;;;4.20;1.83;;;3.20;97.10;;;;;;4902469;29;20124;-81
2021/12/10 02:28:44;;;;;;;5.97;1.80;;;3.20;97.20;;;;;;4898121;29;20135;-80
2021/12/10 02:31:13;;;;;;;7.72;1.92;;;3.20;97.30;;;;;;4889664;29;20109;-78
2021/12/10 02:33:41;;;;;;;4.65;1.80;;;3.10;97.30;;;;;;4899309;29;20048;-79
2021/12/10 02:36:12;;;;;;;7.45;2.10;;;3.10;97.40;;;;;;4904205;29;20135;-80
2021/12/10 02:38:41;;;;;;;4.00;1.70;;;3.10;97.40;;;;;;4892793;29;20524;-80
2021/12/10 02:41:08;;;;;;;5.60;2.10;;;3.10;97.50;;;;;;4891373;29;20049;-79
2021/12/10 02:43:37;;;;;;;5.13;1.80;;;3.00;97.50;;;;;;4895625;29;20112;-79
2021/12/10 02:46:05;;;;;;;5.15;2.10;;;3.00;97.50;;;;;;4888244;29;20109;-80
2021/12/10 02:48:33;;;;;;;4.45;2.20;;;3.00;97.60;;;;;;4891530;29;20499;-80
2021/12/10 02:51:02;;;;;;;5.90;2.17;;;3.00;97.60;;;;;;4897384;29;20108;-79
2021/12/10 02:53:35;;;;;;;4.63;2.08;;;3.00;97.60;;;;;;4891390;29;20089;-80
2021/12/10 02:56:04;;;;;;;4.93;1.95;;;3.00;97.70;;;;;;4898384;29;20060;-80
2021/12/10 02:58:33;;;;;;;5.93;2.03;;;2.90;97.70;;;;;;4891376;29;20136;-78
2021/12/10 03:01:09;;;;;;;5.63;2.33;;;2.90;97.70;;;;;;4893116;29;20076;-80
2021/12/10 03:03:37;;;;;;;6.03;2.00;;;2.90;97.80;;;;;;4879365;29;20061;-79
2021/12/10 03:06:10;;;;;;;4.53;1.98;;;2.90;97.80;;;;;;4871178;29;20079;-79
2021/12/10 03:08:44;;;;;;;6.18;2.13;;;2.90;97.90;;;;;;4865085;29;20514;-80
2021/12/10 03:11:12;;;;;;;7.65;2.05;;;2.90;97.90;;;;;;4875842;29;20136;-80
2021/12/10 03:13:41;;;;;;;6.95;2.55;;;2.90;97.90;;;;;;4874504;29;20582;-81
2021/12/10 03:16:09;;;;;;;6.78;2.40;;;2.90;97.90;;;;;;4873014;29;20073;-80
2021/12/10 03:18:38;;;;;;;4.82;2.10;;;2.90;98.00;;;;;;4876011;29;20072;-81
2021/12/10 03:21:09;;;;;;;6.50;2.80;;;2.90;97.90;;;;;;4883984;29;20113;-81
2021/12/10 03:23:42;;;;;;;5.72;2.30;;;2.90;97.90;;;;;;4862917;29;20125;-81
2021/12/10 03:26:10;;;;;;;7.50;2.20;;;2.90;98.00;;;;;;4875546;29;20055;-80
2021/12/10 03:28:38;;;;;;;4.97;2.33;;;2.90;98.00;;;;;;4879073;29;20059;-79
2021/12/10 03:31:05;;;;;;;7.07;2.45;;;2.90;97.90;;;;;;4878512;29;20135;-79
2021/12/10 03:33:33;;;;;;;6.43;2.50;;;2.90;97.90;;;;;;4865487;29;20139;-80
2021/12/10 03:36:01;;;;;;;5.55;2.50;;;2.90;98.00;;;;;;4880282;29;20080;-79
2021/12/10 03:38:29;;;;;;;7.22;3.05;;;2.90;98.00;;;;;;4875122;29;20133;-79
2021/12/10 03:40:59;;;;;;;5.00;2.55;;;2.90;98.30;;;;;;4875864;29;20137;-81
2021/12/10 03:43:27;;;;;;;6.30;2.50;;;2.90;98.00;;;;;;4867740;29;20053;-79
2021/12/10 03:45:58;;;;;;;5.90;2.70;;;2.90;98.10;;;;;;4874625;29;20550;-80
2021/12/10 03:48:30;;;;;;;5.82;2.58;;;2.90;98.10;;;;;;4878728;29;20116;-80
2021/12/10 03:51:00;;;;;;;4.57;2.60;;;2.90;98.20;;;;;;4878278;29;20072;-80
2021/12/10 03:53:28;;;;;;;5.72;2.92;;;2.90;98.20;;;;;;4881407;29;20458;-79
2021/12/10 03:56:01;;;;;;;7.53;3.15;;;2.90;98.20;;;;;;4877958;29;20073;-80
2021/12/10 03:58:29;;;;;;;6.55;2.83;;;2.90;98.20;;;;;;4860079;29;20160;-79
2021/12/10 04:00:58;;;;;;;8.68;3.13;;;2.90;98.20;;;;;;4880854;29;20136;-78
2021/12/10 04:03:28;;;;;;;6.85;3.05;;;2.90;98.30;;;;;;4877500;29;20139;-80
2021/12/10 04:05:56;;;;;;;7.78;3.55;;;2.90;98.30;;;;;;4890152;29;20135;-79
2021/12/10 04:08:25;;;;;;;7.55;3.22;;;2.80;98.30;;;;;;4889418;29;20104;-79
2021/12/10 04:10:54;;;;;;;5.78;3.25;;;2.80;98.30;;;;;;4883171;29;20045;-79
2021/12/10 04:13:24;;;;;;;7.35;3.58;;;2.80;98.50;;;;;;4885921;29;20179;-78
2021/12/10 04:15:51;;;;;;;7.63;3.40;;;2.80;98.50;;;;;;4887288;29;20136;-79
2021/12/10 04:18:19;;;;;;;7.57;2.97;;;2.80;98.60;;;;;;4890181;29;20079;-79
2021/12/10 04:20:48;;;;;;;7.65;3.28;;;2.80;98.60;;;;;;4893555;29;20087;-80
2021/12/10 04:23:19;;;;;;;8.15;3.70;;;2.80;98.60;;;;;;4883918;29;20136;-77
2021/12/10 04:25:46;;;;;;;7.05;3.38;;;2.80;98.60;;;;;;4897599;29;20052;-80
2021/12/10 04:28:17;;;;;;;7.82;3.50;;;2.80;98.60;;;;;;4889777;29;20127;-80
2021/12/10 04:30:46;;;;;;;8.38;3.75;;;2.80;98.40;;;;;;4887725;29;20493;-79
2021/12/10 04:33:18;;;;;;;6.88;3.33;;;2.80;98.40;;;;;;4892492;29;20055;-79
2021/12/10 04:35:47;;;;;;;7.88;3.20;;;2.70;98.50;;;;;;4886464;29;20069;-79
2021/12/10 04:38:16;;;;;;;7.97;3.60;;;2.70;98.50;;;;;;4881216;29;20083;-80
2021/12/10 04:40:46;;;;;;;6.82;3.20;;;2.70;98.60;;;;;;4888751;29;20056;-79
2021/12/10 04:43:13;;;;;;;6.85;3.53;;;2.60;98.70;;;;;;4897322;29;20049;-79
2021/12/10 04:45:40;;;;;;;7.45;3.42;;;2.60;98.80;;;;;;4881389;29;20506;-80
2021/12/10 04:48:09;;;;;;;7.13;3.10;;;2.60;99.20;;;;;;4892998;29;20160;-78
2021/12/10 04:50:37;;;;;;;7.72;3.55;;;2.60;99.10;;;;;;4879584;29;20051;-80
2021/12/10 04:53:09;;;;;;;10.02;3.80;;;2.60;99.10;;;;;;4886689;29;20168;-79
2021/12/10 04:55:37;;;;;;;6.90;3.17;;;2.70;99.20;;;;;;4884826;29;20045;-78
2021/12/10 04:58:06;;;;;;;6.60;3.10;;;2.60;98.90;;;;;;4885918;29;20136;-80
2021/12/10 05:00:39;;;;;;;9.13;3.30;;;2.70;98.90;;;;;;4887186;29;20137;-80
2021/12/10 05:03:08;;;;;;;9.27;3.80;;;2.70;98.90;;;;;;4897235;29;20056;-80
2021/12/10 05:05:37;;;;;;;8.63;4.38;;;2.70;98.90;;;;;;4883071;29;20045;-77
2021/12/10 05:08:06;;;;;;;8.65;3.80;;;2.70;98.90;;;;;;4874785;29;20113;-78
2021/12/10 05:10:34;;;;;;;9.93;3.63;;;2.70;99.00;;;;;;4867365;29;20076;-80
2021/12/10 05:13:01;;;;;;;7.63;4.25;;;2.70;98.90;;;;;;4888588;29;20109;-79
2021/12/10 05:15:37;;;;;;;7.88;3.90;;;2.60;98.90;;;;;;4872463;29;20144;-80
2021/12/10 05:18:04;;;;;;;9.60;4.45;;;2.60;99.00;;;;;;4869119;29;20105;-79
2021/12/10 05:20:41;;;;;;;8.73;4.25;;;2.60;99.10;;;;;;4862627;29;20050;-80
2021/12/10 05:23:09;;;;;;;9.40;3.85;;;2.60;99.30;;;;;;4877537;29;20049;-79
2021/12/10 05:25:36;;;;;;;9.57;4.03;;;2.60;99.50;;;;;;4876491;29;20080;-80
2021/12/10 05:28:04;;;;;;;8.60;4.22;;;2.60;99.50;;;;;;4887451;29;20109;-80
2021/12/10 05:30:34;;;;;;;7.75;4.38;;;2.60;99.20;;;;;;4877154;29;20105;-80
2021/12/10 05:33:03;;;;;;;9.88;4.93;;;2.70;99.20;;;;;;4879662;29;20054;-78
2021/12/10 05:35:35;;;;;;;9.40;4.65;;;2.70;99.00;;;;;;4869104;29;20054;-79
2021/12/10 05:38:02;;;;;;;10.40;4.63;;;2.70;99.00;;;;;;4869117;29;20080;-79
2021/12/10 05:40:29;;;;;;;7.95;4.25;;;2.70;99.30;;;;;;4870165;29;20080;-78
2021/12/10 05:42:57;;;;;;;9.05;4.55;;;2.70;99.00;;;;;;4871205;29;20096;-78
2021/12/10 05:45:24;;;;;;;9.60;4.93;;;2.60;99.10;;;;;;4869312;29;20113;-79
2021/12/10 05:47:52;;;;;;;9.68;4.93;;;2.60;99.10;;;;;;4869627;29;20484;-78
2021/12/10 05:50:28;;;;;;;9.90;5.00;;;2.60;99.10;;;;;;4869528;29;20131;-79
2021/12/10 05:52:58;;;;;;;8.32;4.63;;;2.60;99.20;;;;;;4870451;29;20062;-80
2021/12/10 05:55:26;;;;;;;8.32;4.30;;;2.60;99.20;;;;;;4870539;29;20189;-80
2021/12/10 05:57:54;;;;;;;7.93;4.40;;;2.60;99.50;;;;;;4869941;29;20057;-78
2021/12/10 06:00:27;;;;;;;7.68;4.20;;;2.60;99.30;;;;;;4868494;29;20136;-80
2021/12/10 06:02:54;;;;;;;9.32;4.30;;;2.60;99.20;;;;;;4877841;29;20120;-79
2021/12/10 06:05:22;;;;;;;9.90;4.40;;;2.60;99.20;;;;;;4887661;29;20092;-80
2021/12/10 06:07:50;;;;;;;10.23;5.15;;;2.60;99.20;;;;;;4887699;29;20934;-78
2021/12/10 06:10:23;;;;;;;8.25;4.05;;;2.60;99.50;;;;;;4886805;29;20511;-79
2021/12/10 06:12:51;;;;;;;8.73;4.40;;;2.60;99.40;;;;;;4889045;29;20088;-80
2021/12/10 06:15:22;;;;;;;8.55;4.32;;;2.60;99.30;;;;;;4888250;29;20148;-79
2021/12/10 06:17:49;;;;;;;7.28;3.75;;;2.50;99.10;;;;;;4890422;29;20088;-80
2021/12/10 06:20:21;;;;;;;8.40;4.30;;;2.50;99.10;;;;;;4887519;29;20135;-78
2021/12/10 06:22:49;;;;;;;8.07;4.45;;;2.50;99.10;;;;;;4888352;29;20080;-78
2021/12/10 06:25:18;;;;;;;8.80;4.07;;;2.40;99.40;;;;;;4888178;29;20164;-78
2021/12/10 06:27:46;;;;;;;7.72;3.85;;;2.40;99.50;;;;;;4889875;29;20135;-78
2021/12/10 06:30:15;;;;;;;7.82;4.00;;;2.40;99.60;;;;;;4890015;29;20049;-78
2021/12/10 06:32:46;;;;;;;8.35;4.40;;;2.40;99.60;;;;;;4890241;29;20048;-80
2021/12/10 06:35:15;;;;;;;9.27;4.35;;;2.50;99.60;;;;;;4888311;29;20091;-79
2021/12/10 06:37:44;;;;;;;8.85;4.68;;;2.40;99.90;;;;;;4887419;29;20112;-80
2021/12/10 06:40:17;;;;;;;9.63;4.82;;;2.50;99.70;;;;;;4888026;29;20080;-79
2021/12/10 06:42:47;;;;;;;8.77;4.43;;;2.40;99.50;;;;;;4888259;29;20136;-79
2021/12/10 06:45:19;;;;;;;8.27;4.20;;;2.40;99.60;;;;;;4888787;29;20081;-78
2021/12/10 06:47:48;;;;;;;9.35;5.00;;;2.40;99.60;;;;;;4888596;29;20049;-78
2021/12/10 06:50:17;;;;;;;9.05;4.30;;;2.40;99.70;;;;;;4888417;29;20434;-79
2021/12/10 06:52:47;;;;;;;8.05;4.43;;;2.30;99.70;;;;;;4883819;29;20076;-79
2021/12/10 06:55:15;;;;;;;8.52;3.80;;;2.30;99.70;;;;;;4883492;29;20059;-78
2021/12/10 06:57:44;;;;;;;7.43;4.10;;;2.30;99.50;;;;;;4885493;29;20474;-80
2021/12/10 07:00:17;;;;;;;9.43;3.90;;;2.30;99.30;;;;;;4887430;29;20049;-80
2021/12/10 07:02:44;;;;;;;7.22;3.92;;;2.30;99.20;;;;;;4886448;29;20092;-79
2021/12/10 07:05:12;;;;;;;7.40;3.45;;;2.30;99.00;;;;;;4888116;29;20060;-81
2021/12/10 07:07:39;;;;;;;8.48;4.13;;;2.30;98.80;;;;;;4886205;29;20135;-80
2021/12/10 07:10:09;;;;;;;6.60;3.78;;;2.30;99.00;;;;;;4887066;29;20112;-78
2021/12/10 07:12:36;;;;;;;8.55;3.83;;;2.30;99.00;;;;;;4887535;29;20132;-76
2021/12/10 07:15:19;;;;;;;6.70;3.65;;;2.30;98.50;;;;;;4888504;29;20120;-79
2021/12/10 07:17:50;;;;;;;6.80;3.65;;;2.30;98.10;;;;;;4886145;29;20076;-77
2021/12/10 07:20:24;;;;;;;7.50;3.90;;;2.30;98.00;;;;;;4884349;29;20053;-80
2021/12/10 07:22:52;;;;;;;7.07;3.90;;;2.30;97.90;;;;;;4885053;29;20148;-79
2021/12/10 07:25:21;;;;;;;6.85;3.55;;;2.30;97.70;;;;;;4885774;29;20550;-79
2021/12/10 07:27:48;;;;;;;6.20;3.17;;;2.30;97.50;;;;;;4886418;29;20049;-79
2021/12/10 07:30:26;;;;;;;6.60;2.60;;;2.20;96.80;;;;;;4885424;29;20080;-79
2021/12/10 07:32:55;;;;;;;6.28;2.70;;;2.20;96.10;;;;;;4886664;29;20148;-80
2021/12/10 07:35:22;;;;;;;6.65;3.05;;;2.20;95.90;;;;;;4885053;29;20073;-80
2021/12/10 07:37:50;;;;;;;6.32;2.80;;;2.20;95.30;;;;;;4888055;29;20132;-81
2021/12/10 07:40:21;;;;;;;6.07;2.45;;;2.20;95.00;;;;;;4887548;29;20502;-79
2021/12/10 07:42:49;;;;;;;6.72;2.97;;;2.10;95.60;;;;;;4886170;29;20090;-78
2021/12/10 07:45:19;;;;;;;5.90;2.30;;;2.20;95.30;;;;;;4886729;29;20091;-81
2021/12/10 07:47:50;;;;;;;7.28;3.10;;;2.20;95.70;;;;;;4883182;29;20140;-80
2021/12/10 07:50:23;;;;;;;8.32;3.45;;;2.20;95.50;;;;;;4880858;29;20053;-78
2021/12/10 07:52:55;;;;;;;7.72;3.67;;;2.20;95.80;;;;;;4880715;29;20081;-81
2021/12/10 07:55:25;;;;;;;8.63;3.70;;;2.20;96.20;;;;;;4878849;29;20498;-78
2021/12/10 07:57:52;;;;;;;8.88;3.97;;;2.20;96.00;;;;;;4881693;29;20145;-80
2021/12/10 08:00:24;;;;;;;9.02;3.60;;;2.20;96.10;;;;;;4881029;29;20088;-80
2021/12/10 08:02:52;;;;;;;7.85;4.20;;;2.10;96.20;;;;;;4881983;29;20096;-79
2021/12/10 08:05:21;;;;;;;7.05;3.13;;;2.10;96.20;;;;;;4883387;29;20123;-80
2021/12/10 08:07:49;;;;;;;5.97;2.75;;;2.10;95.90;;;;;;4871529;29;20403;-79
2021/12/10 08:10:17;;;;;;;5.25;2.35;;;2.10;95.80;;;;;;4869449;29;20551;-82
2021/12/10 08:12:44;;;;;;;5.47;1.90;;;2.20;95.30;;;;;;4862009;29;20448;-80
2021/12/10 08:15:12;;;;;;;4.60;1.90;;;2.30;94.80;;;;;;4862333;29;20068;-79
2021/12/10 08:17:42;;;;;;;4.13;1.60;;;2.30;94.90;;;;;;4864162;29;20061;-80
2021/12/10 08:20:14;;;;;;;3.65;1.42;;;2.50;93.70;;;;;;4881070;29;20052;-85
2021/12/10 08:22:43;;;;;;;3.80;1.70;;;2.50;93.50;;;;;;4887220;29;20476;-85
2021/12/10 08:25:10;;;;;;;4.65;1.80;;;2.60;93.20;;;;;;4875012;29;20436;-84
2021/12/10 08:27:38;;;;;;;4.00;1.48;;;2.70;93.10;;;;;;4863576;29;20144;-87
2021/12/10 08:30:07;;;;;;;3.50;1.70;;;2.80;92.60;;;;;;4879734;29;20055;-86
2021/12/10 08:32:34;;;;;;;3.42;1.30;;;2.90;92.50;;;;;;4900186;29;20592;-85
2021/12/10 08:35:08;;;;;;;51.45;14.40;;;2.90;91.40;;;;;;4888121;29;20088;-87
2021/12/10 08:37:36;;;;;;;64.22;19.40;;;3.10;91.70;;;;;;4881955;29;20128;-85
2021/12/10 08:40:08;;;;;;;21.80;6.95;;;3.30;92.00;;;;;;4848115;29;20106;-81
2021/12/10 08:42:36;;;;;;;11.32;3.28;;;3.50;90.40;;;;;;4862841;29;20132;-81
2021/12/10 08:45:06;;;;;;;5.50;1.70;;;3.60;89.40;;;;;;4870592;29;20141;-81
2021/12/10 08:47:34;;;;;;;3.53;1.13;;;3.60;87.60;;;;;;4864870;29;20124;-83
2021/12/10 08:50:04;;;;;;;3.72;0.93;;;3.70;85.70;;;;;;4875060;29;20155;-81
2021/12/10 08:52:31;;;;;;;5.90;1.55;;;3.80;84.60;;;;;;4871128;29;20136;-80
2021/12/10 08:54:58;;;;;;;3.15;1.02;;;3.80;83.90;;;;;;4861785;29;20192;-79
2021/12/10 08:57:26;;;;;;;3.15;0.90;;;3.90;82.20;;;;;;4861824;29;20089;-81
2021/12/10 08:59:54;;;;;;;4.35;1.15;;;3.90;81.60;;;;;;4859274;29;20129;-82
2021/12/10 09:02:21;;;;;;;2.53;0.88;;;3.90;81.30;;;;;;4859283;29;20072;-80
2021/12/10 09:04:49;;;;;;;3.47;0.95;;;3.90;80.10;;;;;;4859459;29;20140;-81
2021/12/10 09:07:19;;;;;;;2.72;1.00;;;4.00;79.40;;;;;;4873228;29;20136;-83
2021/12/10 09:09:48;;;;;;;2.90;0.90;;;4.00;78.80;;;;;;4867578;29;20080;-86
2021/12/10 09:12:20;;;;;;;2.70;1.15;;;4.00;78.50;;;;;;4877740;29;20131;-83
2021/12/10 09:14:51;;;;;;;4.32;0.90;;;4.00;76.90;;;;;;4878348;29;20053;-83
2021/12/10 09:17:23;;;;;;;3.13;1.00;;;4.10;75.80;;;;;;4878697;29;20064;-81
2021/12/10 09:19:52;;;;;;;3.05;0.80;;;4.10;75.70;;;;;;4877959;29;20052;-82
2021/12/10 09:22:21;;;;;;;3.47;1.20;;;4.10;76.20;;;;;;4875017;29;20560;-81
2021/12/10 09:24:48;;;;;;;3.25;0.98;;;4.10;76.00;;;;;;4874814;29;20128;-82
2021/12/10 09:27:16;;;;;;;2.42;0.90;;;4.20;75.70;;;;;;4859528;29;20140;-81
2021/12/10 09:29:47;;;;;;;3.13;0.90;;;4.20;75.90;;;;;;4860626;29;20050;-81
2021/12/10 09:32:20;;;;;;;3.35;1.00;;;4.30;75.40;;;;;;4860411;29;20514;-82
2021/12/10 09:34:49;;;;;;;2.63;0.90;;;4.30;75.80;;;;;;4873261;29;20053;-82
2021/12/10 09:37:21;;;;;;;2.35;0.60;;;4.40;75.80;;;;;;4875095;29;20149;-82
2021/12/10 09:39:50;;;;;;;2.55;0.82;;;4.50;75.50;;;;;;4877596;29;20128;-81
2021/12/10 09:42:22;;;;;;;2.85;0.85;;;4.40;74.60;;;;;;4867197;29;20046;-81
2021/12/10 09:44:52;;;;;;;4.72;1.00;;;4.60;74.50;;;;;;4861798;29;20054;-78
2021/12/10 09:47:19;;;;;;;3.40;1.15;;;4.60;74.40;;;;;;4862110;29;20496;-80
2021/12/10 09:49:49;;;;;;;2.47;0.90;;;4.60;72.50;;;;;;4862381;29;20137;-82
2021/12/10 09:52:21;;;;;;;2.92;0.80;;;4.70;73.10;;;;;;4865884;29;20055;-82
2021/12/10 09:54:49;;;;;;;3.25;0.98;;;4.60;73.70;;;;;;4877958;29;20131;-81
2021/12/10 09:57:21;;;;;;;2.85;0.82;;;4.70;73.30;;;;;;4866715;29;20101;-82
2021/12/10 09:59:51;;;;;;;2.63;0.80;;;4.70;73.40;;;;;;4868569;29;20129;-82
2021/12/10 10:02:19;;;;;;;2.80;0.77;;;4.70;73.20;;;;;;4875854;29;20141;-83
2021/12/10 10:04:50;;;;;;;1.73;0.60;;;4.70;72.20;;;;;;4865483;29;20593;-82
2021/12/10 10:07:22;;;;;;;3.38;0.85;;;4.70;72.50;;;;;;4867295;29;20072;-83
2021/12/10 10:09:54;;;;;;;1.67;0.63;;;4.70;72.60;;;;;;4865606;29;20121;-82
2021/12/10 10:12:28;;;;;;;3.83;1.00;;;4.70;72.30;;;;;;4865762;29;20441;-83
2021/12/10 10:14:56;;;;;;;2.05;0.68;;;4.60;72.50;;;;;;4899377;29;20068;-82
2021/12/10 10:17:24;;;;;;;2.03;0.70;;;4.70;72.30;;;;;;4893054;29;20473;-83
2021/12/10 10:19:53;;;;;;;1.52;0.50;;;4.70;72.00;;;;;;4890376;29;20535;-83
2021/12/10 10:22:25;;;;;;;2.33;0.63;;;4.70;71.80;;;;;;4883602;29;20067;-82
2021/12/10 10:24:53;;;;;;;1.70;0.70;;;4.70;71.70;;;;;;4878713;29;20130;-83
2021/12/10 10:27:25;;;;;;;1.38;0.50;;;4.80;71.90;;;;;;4881056;29;20059;-81
2021/12/10 10:29:57;;;;;;;2.38;0.85;;;4.80;72.00;;;;;;4883466;29;20128;-84
2021/12/10 10:32:29;;;;;;;2.80;0.90;;;4.80;72.00;;;;;;4891058;29;20052;-84
2021/12/10 10:35:02;;;;;;;4.05;0.90;;;4.90;71.90;;;;;;4896791;29;20045;-91
2021/12/10 10:37:32;;;;;;;2.95;0.90;;;4.30;71.30;;;;;;4896286;29;20088;-89
2021/12/10 10:40:00;;;;;;;3.00;0.90;;;4.90;71.60;;;;;;4895548;29;20165;-85
2021/12/10 10:42:30;;;;;;;3.05;1.00;;;4.90;71.60;;;;;;4899569;29;20589;-86
2021/12/10 10:45:03;;;;;;;5.70;1.38;;;4.90;72.00;;;;;;4896942;29;20052;-85
2021/12/10 10:47:30;;;;;;;4.97;0.93;;;4.50;82.30;;;;;;4882931;29;20061;-82
2021/12/10 10:50:00;;;;;;;2.63;0.90;;;5.00;79.10;;;;;;4886257;29;20129;-86
2021/12/10 10:52:33;;;;;;;2.83;0.80;;;5.20;77.00;;;;;;4881676;29;20482;-87
2021/12/10 10:55:19;;;;;;;2.05;0.73;;;5.20;78.30;;;;;;4868507;29;20128;-88
2021/12/10 10:57:56;;;;;;;2.75;0.90;;;5.20;80.60;;;;;;4894023;29;20052;-84
2021/12/10 11:00:33;;;;;;;2.22;0.80;;;5.00;83.30;;;;;;4890062;29;20053;-85
2021/12/10 11:03:10;;;;;;;2.67;0.80;;;5.30;84.40;;;;;;4879091;29;20481;-84
2021/12/10 11:05:48;;;;;;;2.60;0.80;;;5.30;83.50;;;;;;4873783;29;20147;-82
2021/12/10 11:08:29;;;;;;;3.28;1.00;;;5.30;83.90;;;;;;4877628;29;20389;-85
2021/12/10 11:11:06;;;;;;;2.28;1.08;;;5.30;83.10;;;;;;4880900;29;20156;-88
2021/12/10 11:13:33;;;;;;;1.80;0.70;;;5.30;73.00;;;;;;4880944;29;20049;-86
2021/12/10 11:16:09;;;;;;;2.33;0.70;;;5.30;70.50;;;;;;4895481;29;20484;-85
2021/12/10 11:18:48;;;;;;;2.30;0.80;;;5.10;70.60;;;;;;4889975;29;20048;-84
2021/12/10 11:21:17;;;;;;;1.90;0.63;;;5.10;70.60;;;;;;4878482;29;20135;-85
2021/12/10 11:23:46;;;;;;;3.33;0.80;;;5.00;67.30;;;;;;4892518;29;20558;-86
2021/12/10 11:26:13;;;;;;;1.92;0.70;;;5.00;67.70;;;;;;4881104;29;20061;-85
2021/12/10 11:28:42;;;;;;;2.53;0.70;;;5.00;67.50;;;;;;4876237;29;20145;-78
2021/12/10 11:31:13;;;;;;;1.65;0.70;;;4.90;67.20;;;;;;4878459;29;20052;-83
2021/12/10 11:33:49;;;;;;;3.58;0.88;;;4.90;67.20;;;;;;4878716;29;20148;-82
2021/12/10 11:36:22;;;;;;;3.50;1.10;;;4.90;67.50;;;;;;4878998;29;20060;-82
2021/12/10 11:38:55;;;;;;;2.08;0.80;;;4.90;68.20;;;;;;4879094;29;20076;-81
2021/12/10 11:41:26;;;;;;;3.38;0.93;;;4.80;70.10;;;;;;4878751;29;20149;-82
2021/12/10 11:44:18;;;;;;;2.40;0.90;;;4.80;72.00;;;;;;4879103;29;20141;-83
2021/12/10 11:47:02;;;;;;;2.25;0.98;;;4.70;74.20;;;;;;4876289;29;20105;-81
2021/12/10 11:49:33;;;;;;;3.63;1.00;;;4.70;76.10;;;;;;4876133;29;20109;-84
2021/12/10 11:52:07;;;;;;;3.65;0.95;;;4.60;78.00;;;;;;4869158;29;20132;-80
2021/12/10 11:54:40;;;;;;;2.75;0.90;;;4.50;80.20;;;;;;4872353;29;20132;-82
2021/12/10 11:57:13;;;;;;;2.72;1.20;;;4.40;82.60;;;;;;4872418;29;20049;-81
2021/12/10 11:59:48;;;;;;;2.42;0.90;;;4.40;85.40;;;;;;4879165;29;20461;-81
2021/12/10 12:02:18;;;;;;;2.40;0.90;;;4.30;88.40;;;;;;4872551;29;20064;-82
2021/12/10 12:04:49;;;;;;;2.65;1.02;;;4.20;90.10;;;;;;4862187;29;20136;-82
2021/12/10 12:07:33;;;;;;;2.90;1.00;;;4.20;90.70;;;;;;4864051;29;20132;-81
2021/12/10 12:10:12;;;;;;;2.40;0.73;;;4.20;91.50;;;;;;4862911;29;20141;-82
2021/12/10 12:12:44;;;;;;;3.13;1.00;;;4.20;92.10;;;;;;4860201;29;20507;-81
2021/12/10 12:15:28;;;;;;;3.58;0.95;;;4.10;92.80;;;;;;4859771;29;20081;-81
2021/12/10 12:17:59;;;;;;;3.88;1.25;;;4.10;93.50;;;;;;4864066;29;20091;-81
2021/12/10 12:20:38;;;;;;;4.47;1.50;;;4.10;94.00;;;;;;4860023;29;20155;-82
2021/12/10 12:26:06;;;;;;;2.92;1.25;;;4.10;94.60;;;;;;4859995;29;20705;-82
2021/12/10 12:28:39;;;;;;;3.47;1.27;;;4.10;94.90;;;;;;4860240;29;20053;-81
2021/12/10 12:31:11;;;;;;;7.05;2.70;;;4.10;95.30;;;;;;4852038;29;20041;-82
2021/12/10 12:34:00;;;;;;;5.53;1.90;;;4.10;95.50;;;;;;4872644;29;20489;-82
2021/12/10 12:36:34;;;;;;;3.40;1.50;;;4.10;95.80;;;;;;4877546;29;20144;-82
2021/12/10 12:39:05;;;;;;;3.72;1.40;;;4.10;96.00;;;;;;4894155;29;20146;-81
2021/12/10 12:41:39;;;;;;;4.38;1.10;;;4.20;96.20;;;;;;4878151;29;20140;-80
2021/12/10 12:44:26;;;;;;;5.20;1.40;;;4.20;96.40;;;;;;4877809;29;20136;-82
2021/12/10 12:47:05;;;;;;;5.53;1.83;;;4.20;96.70;;;;;;4880409;29;20474;-81
2021/12/10 12:49:56;;;;;;;3.50;1.42;;;4.20;96.70;;;;;;4876336;29;20111;-82
2021/12/10 12:52:27;;;;;;;2.90;1.40;;;4.20;96.80;;;;;;4877968;29;20495;-81
2021/12/10 12:55:22;;;;;;;3.28;1.10;;;4.20;97.10;;;;;;4877907;29;20462;-80
2021/12/10 12:57:56;;;;;;;2.80;1.30;;;4.20;97.00;;;;;;4880516;29;20059;-79
2021/12/10 13:00:29;;;;;;;2.60;1.10;;;4.20;96.90;;;;;;4882811;29;20132;-81
2021/12/10 13:03:01;;;;;;;3.55;1.52;;;4.20;97.00;;;;;;4877761;29;20451;-80
2021/12/10 13:05:37;;;;;;;2.53;1.10;;;4.30;97.00;;;;;;4879621;29;20131;-80
2021/12/10 13:08:09;;;;;;;3.92;1.50;;;4.30;96.90;;;;;;4889670;29;20052;-81
2021/12/10 13:10:41;;;;;;;5.35;1.30;;;4.40;96.80;;;;;;4877912;29;20566;-81
2021/12/10 13:13:14;;;;;;;3.03;1.23;;;4.40;96.60;;;;;;4877380;29;20134;-81
2021/12/10 13:15:51;;;;;;;3.33;1.40;;;4.40;96.40;;;;;;4873289;29;20550;-81
2021/12/10 13:18:22;;;;;;;3.53;1.33;;;4.40;96.30;;;;;;4886513;29;20065;-78
2021/12/10 13:20:53;;;;;;;3.67;1.40;;;4.50;96.20;;;;;;4886943;29;20048;-79
2021/12/10 13:23:25;;;;;;;3.22;1.35;;;4.50;96.20;;;;;;4889555;29;20057;-79
2021/12/10 13:25:58;;;;;;;3.42;1.25;;;4.50;96.20;;;;;;4887439;29;20079;-82
2021/12/10 13:28:27;;;;;;;2.90;1.25;;;4.50;96.30;;;;;;4878366;29;20136;-83